sensor_id;sensor_type;location;lat;lon;timestamp;P1;durP1;ratioP1;P2;durP2;ratioP2
40959;SDS011;27842;52.272;8.052;2022-11-21T00:00:04;26.47;;;14.43;;
40959;SDS011;27842;52.272;8.052;2022-11-21T00:02:31;27.97;;;13.90;;
40959;SDS011;27842;52.272;8.052;2022-11-21T00:04:56;24.57;;;12.63;;
40959;SDS011;27842;52.272;8.052;2022-11-21T00:07:22;27.33;;;14.33;;
40959;SDS011;27842;52.272;8.052;2022-11-21T00:09:48;28.63;;;14.37;;
40959;SDS011;27842;52.272;8.052;2022-11-21T00:12:14;26.07;;;13.40;;
40959;SDS011;27842;52.272;8.052;2022-11-21T00:14:40;26.80;;;14.10;;
40959;SDS011;27842;52.272;8.052;2022-11-21T00:17:06;25.53;;;13.30;;
40959;SDS011;27842;52.272;8.052;2022-11-21T00:19:32;29.37;;;14.40;;
40959;SDS011;27842;52.272;8.052;2022-11-21T00:21:57;26.27;;;13.77;;
40959;SDS011;27842;52.272;8.052;2022-11-21T00:24:23;28.30;;;13.90;;
40959;SDS011;27842;52.272;8.052;2022-11-21T00:26:48;27.13;;;14.03;;
40959;SDS011;27842;52.272;8.052;2022-11-21T00:29:14;28.63;;;15.03;;
40959;SDS011;27842;52.272;8.052;2022-11-21T00:31:40;27.47;;;14.67;;
40959;SDS011;27842;52.272;8.052;2022-11-21T00:34:05;27.47;;;14.83;;
40959;SDS011;27842;52.272;8.052;2022-11-21T00:36:31;27.23;;;14.93;;
40959;SDS011;27842;52.272;8.052;2022-11-21T00:38:56;26.77;;;14.13;;
40959;SDS011;27842;52.272;8.052;2022-11-21T00:41:22;27.67;;;14.60;;
40959;SDS011;27842;52.272;8.052;2022-11-21T00:43:48;28.17;;;14.97;;
40959;SDS011;27842;52.272;8.052;2022-11-21T00:46:13;26.97;;;14.40;;
40959;SDS011;27842;52.272;8.052;2022-11-21T00:48:39;27.20;;;14.13;;
40959;SDS011;27842;52.272;8.052;2022-11-21T00:51:04;27.23;;;13.53;;
40959;SDS011;27842;52.272;8.052;2022-11-21T00:53:30;26.97;;;14.17;;
40959;SDS011;27842;52.272;8.052;2022-11-21T00:55:56;27.20;;;14.23;;
40959;SDS011;27842;52.272;8.052;2022-11-21T00:58:22;26.70;;;14.53;;
40959;SDS011;27842;52.272;8.052;2022-11-21T01:00:47;27.97;;;14.37;;
40959;SDS011;27842;52.272;8.052;2022-11-21T01:03:13;26.20;;;13.43;;
40959;SDS011;27842;52.272;8.052;2022-11-21T01:05:39;25.87;;;13.83;;
40959;SDS011;27842;52.272;8.052;2022-11-21T01:08:04;27.27;;;14.60;;
40959;SDS011;27842;52.272;8.052;2022-11-21T01:10:30;27.57;;;14.17;;
40959;SDS011;27842;52.272;8.052;2022-11-21T01:12:55;26.63;;;14.23;;
40959;SDS011;27842;52.272;8.052;2022-11-21T01:15:21;25.90;;;14.37;;
40959;SDS011;27842;52.272;8.052;2022-11-21T01:17:47;25.77;;;13.37;;
40959;SDS011;27842;52.272;8.052;2022-11-21T01:20:12;26.57;;;13.30;;
40959;SDS011;27842;52.272;8.052;2022-11-21T01:22:38;26.40;;;13.23;;
40959;SDS011;27842;52.272;8.052;2022-11-21T01:25:04;24.87;;;13.77;;
40959;SDS011;27842;52.272;8.052;2022-11-21T01:27:36;25.97;;;13.53;;
40959;SDS011;27842;52.272;8.052;2022-11-21T01:30:01;28.43;;;14.30;;
40959;SDS011;27842;52.272;8.052;2022-11-21T01:32:27;28.53;;;13.67;;
40959;SDS011;27842;52.272;8.052;2022-11-21T01:34:53;26.83;;;13.93;;
40959;SDS011;27842;52.272;8.052;2022-11-21T01:37:18;27.63;;;14.63;;
40959;SDS011;27842;52.272;8.052;2022-11-21T01:39:44;26.00;;;14.13;;
40959;SDS011;27842;52.272;8.052;2022-11-21T01:42:10;27.17;;;14.87;;
40959;SDS011;27842;52.272;8.052;2022-11-21T01:44:50;26.00;;;12.77;;
40959;SDS011;27842;52.272;8.052;2022-11-21T01:47:18;27.67;;;13.97;;
40959;SDS011;27842;52.272;8.052;2022-11-21T01:49:44;26.37;;;13.63;;
40959;SDS011;27842;52.272;8.052;2022-11-21T01:54:54;24.77;;;13.05;;
40959;SDS011;27842;52.272;8.052;2022-11-21T01:57:24;25.20;;;13.90;;
40959;SDS011;27842;52.272;8.052;2022-11-21T01:59:55;24.27;;;12.93;;
40959;SDS011;27842;52.272;8.052;2022-11-21T02:02:26;25.47;;;13.97;;
40959;SDS011;27842;52.272;8.052;2022-11-21T02:04:55;25.83;;;13.57;;
40959;SDS011;27842;52.272;8.052;2022-11-21T02:07:21;28.57;;;14.17;;
40959;SDS011;27842;52.272;8.052;2022-11-21T02:09:56;26.40;;;14.63;;
40959;SDS011;27842;52.272;8.052;2022-11-21T02:14:52;25.90;;;13.50;;
40959;SDS011;27842;52.272;8.052;2022-11-21T02:17:19;25.37;;;14.13;;
40959;SDS011;27842;52.272;8.052;2022-11-21T02:22:19;28.80;;;14.70;;
40959;SDS011;27842;52.272;8.052;2022-11-21T02:25:05;25.60;;;14.37;;
40959;SDS011;27842;52.272;8.052;2022-11-21T02:27:39;25.20;;;12.93;;
40959;SDS011;27842;52.272;8.052;2022-11-21T02:30:05;26.27;;;14.37;;
40959;SDS011;27842;52.272;8.052;2022-11-21T02:32:37;28.70;;;15.90;;
40959;SDS011;27842;52.272;8.052;2022-11-21T02:35:05;27.30;;;15.23;;
40959;SDS011;27842;52.272;8.052;2022-11-21T02:37:32;26.67;;;13.90;;
40959;SDS011;27842;52.272;8.052;2022-11-21T02:40:01;26.70;;;14.53;;
40959;SDS011;27842;52.272;8.052;2022-11-21T02:42:37;29.77;;;15.33;;
40959;SDS011;27842;52.272;8.052;2022-11-21T02:45:21;25.83;;;13.93;;
40959;SDS011;27842;52.272;8.052;2022-11-21T02:47:57;28.23;;;13.90;;
40959;SDS011;27842;52.272;8.052;2022-11-21T02:50:30;26.17;;;14.23;;
40959;SDS011;27842;52.272;8.052;2022-11-21T02:52:58;27.87;;;14.80;;
40959;SDS011;27842;52.272;8.052;2022-11-21T02:55:23;27.23;;;14.63;;
40959;SDS011;27842;52.272;8.052;2022-11-21T02:57:50;29.83;;;15.90;;
40959;SDS011;27842;52.272;8.052;2022-11-21T03:00:16;29.43;;;15.30;;
40959;SDS011;27842;52.272;8.052;2022-11-21T03:02:42;27.47;;;14.93;;
40959;SDS011;27842;52.272;8.052;2022-11-21T03:05:10;28.63;;;15.63;;
40959;SDS011;27842;52.272;8.052;2022-11-21T03:07:38;29.80;;;15.23;;
40959;SDS011;27842;52.272;8.052;2022-11-21T03:10:04;28.53;;;15.20;;
40959;SDS011;27842;52.272;8.052;2022-11-21T03:12:30;28.00;;;15.13;;
40959;SDS011;27842;52.272;8.052;2022-11-21T03:14:55;26.37;;;14.93;;
40959;SDS011;27842;52.272;8.052;2022-11-21T03:17:21;28.33;;;15.13;;
40959;SDS011;27842;52.272;8.052;2022-11-21T03:19:47;27.63;;;15.30;;
40959;SDS011;27842;52.272;8.052;2022-11-21T03:22:13;28.63;;;15.67;;
40959;SDS011;27842;52.272;8.052;2022-11-21T03:24:39;27.93;;;15.60;;
40959;SDS011;27842;52.272;8.052;2022-11-21T03:27:05;29.30;;;15.43;;
40959;SDS011;27842;52.272;8.052;2022-11-21T03:29:30;28.17;;;15.27;;
40959;SDS011;27842;52.272;8.052;2022-11-21T03:31:56;30.13;;;15.40;;
40959;SDS011;27842;52.272;8.052;2022-11-21T03:34:21;30.40;;;15.63;;
40959;SDS011;27842;52.272;8.052;2022-11-21T03:36:48;31.17;;;16.07;;
40959;SDS011;27842;52.272;8.052;2022-11-21T03:39:14;28.77;;;15.40;;
40959;SDS011;27842;52.272;8.052;2022-11-21T03:41:40;27.73;;;15.67;;
40959;SDS011;27842;52.272;8.052;2022-11-21T03:44:07;27.27;;;14.90;;
40959;SDS011;27842;52.272;8.052;2022-11-21T03:46:35;28.43;;;16.03;;
40959;SDS011;27842;52.272;8.052;2022-11-21T03:49:02;28.38;;;15.75;;
40959;SDS011;27842;52.272;8.052;2022-11-21T03:51:28;28.27;;;15.33;;
40959;SDS011;27842;52.272;8.052;2022-11-21T03:53:54;28.37;;;15.73;;
40959;SDS011;27842;52.272;8.052;2022-11-21T03:56:21;27.73;;;15.80;;
40959;SDS011;27842;52.272;8.052;2022-11-21T03:58:46;27.87;;;14.87;;
40959;SDS011;27842;52.272;8.052;2022-11-21T04:01:12;27.23;;;14.47;;
40959;SDS011;27842;52.272;8.052;2022-11-21T04:03:39;31.23;;;16.47;;
40959;SDS011;27842;52.272;8.052;2022-11-21T04:06:05;28.93;;;16.17;;
40959;SDS011;27842;52.272;8.052;2022-11-21T04:08:31;31.43;;;16.63;;
40959;SDS011;27842;52.272;8.052;2022-11-21T04:10:57;29.77;;;15.40;;
40959;SDS011;27842;52.272;8.052;2022-11-21T04:13:22;28.20;;;15.80;;
40959;SDS011;27842;52.272;8.052;2022-11-21T04:15:48;30.17;;;16.67;;
40959;SDS011;27842;52.272;8.052;2022-11-21T04:18:14;27.20;;;15.47;;
40959;SDS011;27842;52.272;8.052;2022-11-21T04:20:40;28.77;;;15.60;;
40959;SDS011;27842;52.272;8.052;2022-11-21T04:23:05;26.50;;;15.70;;
40959;SDS011;27842;52.272;8.052;2022-11-21T04:25:31;27.70;;;15.70;;
40959;SDS011;27842;52.272;8.052;2022-11-21T04:27:57;28.10;;;16.10;;
40959;SDS011;27842;52.272;8.052;2022-11-21T04:30:24;29.03;;;16.20;;
40959;SDS011;27842;52.272;8.052;2022-11-21T04:32:53;28.80;;;15.67;;
40959;SDS011;27842;52.272;8.052;2022-11-21T04:35:20;28.17;;;15.83;;
40959;SDS011;27842;52.272;8.052;2022-11-21T04:37:47;28.87;;;15.67;;
40959;SDS011;27842;52.272;8.052;2022-11-21T04:40:13;27.77;;;15.17;;
40959;SDS011;27842;52.272;8.052;2022-11-21T04:42:40;29.20;;;15.00;;
40959;SDS011;27842;52.272;8.052;2022-11-21T04:45:06;28.50;;;15.73;;
40959;SDS011;27842;52.272;8.052;2022-11-21T04:47:35;27.90;;;15.70;;
40959;SDS011;27842;52.272;8.052;2022-11-21T04:50:01;27.90;;;15.60;;
40959;SDS011;27842;52.272;8.052;2022-11-21T04:52:27;28.23;;;15.30;;
40959;SDS011;27842;52.272;8.052;2022-11-21T04:54:52;28.30;;;15.43;;
40959;SDS011;27842;52.272;8.052;2022-11-21T04:57:18;30.57;;;15.43;;
40959;SDS011;27842;52.272;8.052;2022-11-21T04:59:44;28.93;;;16.03;;
40959;SDS011;27842;52.272;8.052;2022-11-21T05:02:09;28.00;;;15.30;;
40959;SDS011;27842;52.272;8.052;2022-11-21T05:04:35;29.23;;;16.33;;
40959;SDS011;27842;52.272;8.052;2022-11-21T05:07:00;27.10;;;15.20;;
40959;SDS011;27842;52.272;8.052;2022-11-21T05:09:26;28.77;;;16.03;;
40959;SDS011;27842;52.272;8.052;2022-11-21T05:11:52;27.10;;;15.50;;
40959;SDS011;27842;52.272;8.052;2022-11-21T05:14:36;26.33;;;14.70;;
40959;SDS011;27842;52.272;8.052;2022-11-21T05:17:01;29.63;;;16.10;;
40959;SDS011;27842;52.272;8.052;2022-11-21T05:19:27;27.23;;;14.67;;
40959;SDS011;27842;52.272;8.052;2022-11-21T05:21:52;28.37;;;16.27;;
40959;SDS011;27842;52.272;8.052;2022-11-21T05:24:18;27.63;;;15.97;;
40959;SDS011;27842;52.272;8.052;2022-11-21T05:26:47;28.77;;;16.03;;
40959;SDS011;27842;52.272;8.052;2022-11-21T05:29:12;28.73;;;16.27;;
40959;SDS011;27842;52.272;8.052;2022-11-21T05:31:38;29.27;;;16.40;;
40959;SDS011;27842;52.272;8.052;2022-11-21T05:34:03;28.67;;;15.47;;
40959;SDS011;27842;52.272;8.052;2022-11-21T05:36:29;29.30;;;16.07;;
40959;SDS011;27842;52.272;8.052;2022-11-21T05:38:55;30.43;;;16.90;;
40959;SDS011;27842;52.272;8.052;2022-11-21T05:41:20;30.23;;;16.27;;
40959;SDS011;27842;52.272;8.052;2022-11-21T05:43:46;28.67;;;15.83;;
40959;SDS011;27842;52.272;8.052;2022-11-21T05:46:17;29.07;;;16.43;;
40959;SDS011;27842;52.272;8.052;2022-11-21T05:48:47;29.73;;;15.53;;
40959;SDS011;27842;52.272;8.052;2022-11-21T05:51:15;29.07;;;15.67;;
40959;SDS011;27842;52.272;8.052;2022-11-21T05:53:41;30.27;;;16.20;;
40959;SDS011;27842;52.272;8.052;2022-11-21T05:56:09;29.97;;;16.13;;
40959;SDS011;27842;52.272;8.052;2022-11-21T05:58:36;28.63;;;14.95;;
40959;SDS011;27842;52.272;8.052;2022-11-21T06:01:02;28.43;;;14.37;;
40959;SDS011;27842;52.272;8.052;2022-11-21T06:03:29;33.40;;;17.00;;
40959;SDS011;27842;52.272;8.052;2022-11-21T06:08:27;29.57;;;16.60;;
40959;SDS011;27842;52.272;8.052;2022-11-21T06:10:54;30.30;;;16.33;;
40959;SDS011;27842;52.272;8.052;2022-11-21T06:13:20;31.57;;;15.97;;
40959;SDS011;27842;52.272;8.052;2022-11-21T06:16:05;29.93;;;15.50;;
40959;SDS011;27842;52.272;8.052;2022-11-21T06:18:33;28.70;;;15.80;;
40959;SDS011;27842;52.272;8.052;2022-11-21T06:23:30;30.07;;;16.20;;
40959;SDS011;27842;52.272;8.052;2022-11-21T06:26:00;29.47;;;15.87;;
40959;SDS011;27842;52.272;8.052;2022-11-21T06:28:39;30.03;;;14.77;;
40959;SDS011;27842;52.272;8.052;2022-11-21T06:31:07;30.60;;;17.30;;
40959;SDS011;27842;52.272;8.052;2022-11-21T06:33:37;29.27;;;15.80;;
40959;SDS011;27842;52.272;8.052;2022-11-21T06:36:04;31.30;;;17.20;;
40959;SDS011;27842;52.272;8.052;2022-11-21T06:38:31;32.00;;;17.63;;
40959;SDS011;27842;52.272;8.052;2022-11-21T06:40:57;28.33;;;16.33;;
40959;SDS011;27842;52.272;8.052;2022-11-21T06:43:27;28.77;;;15.97;;
40959;SDS011;27842;52.272;8.052;2022-11-21T06:45:54;29.70;;;16.70;;
40959;SDS011;27842;52.272;8.052;2022-11-21T06:48:20;30.87;;;16.37;;
40959;SDS011;27842;52.272;8.052;2022-11-21T06:50:46;28.93;;;16.50;;
40959;SDS011;27842;52.272;8.052;2022-11-21T06:53:12;30.53;;;16.67;;
40959;SDS011;27842;52.272;8.052;2022-11-21T06:55:44;31.73;;;17.27;;
40959;SDS011;27842;52.272;8.052;2022-11-21T06:58:09;28.67;;;16.60;;
40959;SDS011;27842;52.272;8.052;2022-11-21T07:00:35;29.53;;;17.43;;
40959;SDS011;27842;52.272;8.052;2022-11-21T07:03:01;32.80;;;17.77;;
40959;SDS011;27842;52.272;8.052;2022-11-21T07:05:28;31.37;;;17.33;;
40959;SDS011;27842;52.272;8.052;2022-11-21T07:08:00;32.57;;;17.53;;
40959;SDS011;27842;52.272;8.052;2022-11-21T07:10:27;31.67;;;17.53;;
40959;SDS011;27842;52.272;8.052;2022-11-21T07:12:57;30.83;;;17.53;;
40959;SDS011;27842;52.272;8.052;2022-11-21T07:15:45;31.00;;;17.73;;
40959;SDS011;27842;52.272;8.052;2022-11-21T07:18:12;29.77;;;16.70;;
40959;SDS011;27842;52.272;8.052;2022-11-21T07:20:38;41.60;;;23.03;;
40959;SDS011;27842;52.272;8.052;2022-11-21T07:23:05;35.60;;;19.27;;
40959;SDS011;27842;52.272;8.052;2022-11-21T07:25:31;36.17;;;18.30;;
40959;SDS011;27842;52.272;8.052;2022-11-21T07:27:57;32.50;;;17.33;;
40959;SDS011;27842;52.272;8.052;2022-11-21T07:30:26;31.53;;;18.33;;
40959;SDS011;27842;52.272;8.052;2022-11-21T07:33:08;34.93;;;17.73;;
40959;SDS011;27842;52.272;8.052;2022-11-21T07:35:34;30.50;;;17.27;;
40959;SDS011;27842;52.272;8.052;2022-11-21T07:38:00;32.17;;;18.40;;
40959;SDS011;27842;52.272;8.052;2022-11-21T07:40:27;33.67;;;18.63;;
40959;SDS011;27842;52.272;8.052;2022-11-21T07:42:53;32.37;;;17.90;;
40959;SDS011;27842;52.272;8.052;2022-11-21T07:45:24;31.47;;;17.13;;
40959;SDS011;27842;52.272;8.052;2022-11-21T07:47:56;29.70;;;16.97;;
40959;SDS011;27842;52.272;8.052;2022-11-21T07:50:25;31.20;;;16.93;;
40959;SDS011;27842;52.272;8.052;2022-11-21T07:52:55;31.50;;;17.60;;
40959;SDS011;27842;52.272;8.052;2022-11-21T07:55:22;31.37;;;17.77;;
40959;SDS011;27842;52.272;8.052;2022-11-21T07:58:09;29.07;;;16.47;;
40959;SDS011;27842;52.272;8.052;2022-11-21T08:00:39;29.70;;;16.00;;
40959;SDS011;27842;52.272;8.052;2022-11-21T08:03:09;31.20;;;16.53;;
40959;SDS011;27842;52.272;8.052;2022-11-21T08:05:45;31.80;;;17.27;;
40959;SDS011;27842;52.272;8.052;2022-11-21T08:08:14;31.10;;;17.05;;
40959;SDS011;27842;52.272;8.052;2022-11-21T08:10:44;29.17;;;17.10;;
40959;SDS011;27842;52.272;8.052;2022-11-21T08:13:11;30.13;;;16.67;;
40959;SDS011;27842;52.272;8.052;2022-11-21T08:15:38;32.83;;;17.77;;
40959;SDS011;27842;52.272;8.052;2022-11-21T08:18:10;29.70;;;15.53;;
40959;SDS011;27842;52.272;8.052;2022-11-21T08:20:38;32.30;;;17.37;;
40959;SDS011;27842;52.272;8.052;2022-11-21T08:23:05;28.83;;;15.33;;
40959;SDS011;27842;52.272;8.052;2022-11-21T08:25:31;31.93;;;15.97;;
40959;SDS011;27842;52.272;8.052;2022-11-21T08:27:58;28.30;;;15.67;;
40959;SDS011;27842;52.272;8.052;2022-11-21T08:30:24;30.33;;;14.73;;
40959;SDS011;27842;52.272;8.052;2022-11-21T08:32:50;31.73;;;16.07;;
40959;SDS011;27842;52.272;8.052;2022-11-21T08:35:16;28.03;;;15.97;;
40959;SDS011;27842;52.272;8.052;2022-11-21T08:37:42;31.17;;;15.80;;
40959;SDS011;27842;52.272;8.052;2022-11-21T10:42:27;25.37;;;12.67;;
40959;SDS011;27842;52.272;8.052;2022-11-21T10:45:02;23.40;;;11.07;;
40959;SDS011;27842;52.272;8.052;2022-11-21T10:47:41;23.80;;;12.25;;
40959;SDS011;27842;52.272;8.052;2022-11-21T10:52:35;27.93;;;14.10;;
40959;SDS011;27842;52.272;8.052;2022-11-21T10:55:13;24.40;;;12.13;;
40959;SDS011;27842;52.272;8.052;2022-11-21T10:57:46;23.40;;;11.90;;
40959;SDS011;27842;52.272;8.052;2022-11-21T11:00:20;24.80;;;11.77;;
40959;SDS011;27842;52.272;8.052;2022-11-21T11:54:10;20.65;;;9.52;;
40959;SDS011;27842;52.272;8.052;2022-11-21T11:57:01;18.47;;;8.53;;
40959;SDS011;27842;52.272;8.052;2022-11-21T11:59:38;19.50;;;8.53;;
40959;SDS011;27842;52.272;8.052;2022-11-21T12:02:19;19.43;;;9.30;;
40959;SDS011;27842;52.272;8.052;2022-11-21T12:07:27;19.37;;;8.47;;
40959;SDS011;27842;52.272;8.052;2022-11-21T12:10:17;17.27;;;7.60;;
40959;SDS011;27842;52.272;8.052;2022-11-21T12:12:49;20.13;;;9.00;;
40959;SDS011;27842;52.272;8.052;2022-11-21T12:15:28;20.40;;;8.77;;
40959;SDS011;27842;52.272;8.052;2022-11-21T12:42:53;23.13;;;9.93;;
40959;SDS011;27842;52.272;8.052;2022-11-21T12:45:51;22.27;;;11.10;;
40959;SDS011;27842;52.272;8.052;2022-11-21T12:48:32;21.63;;;10.87;;
40959;SDS011;27842;52.272;8.052;2022-11-21T12:57:36;24.60;;;11.90;;
40959;SDS011;27842;52.272;8.052;2022-11-21T13:06:01;24.90;;;11.47;;
40959;SDS011;27842;52.272;8.052;2022-11-21T13:08:38;25.73;;;12.27;;
40959;SDS011;27842;52.272;8.052;2022-11-21T13:13:58;27.53;;;12.80;;
40959;SDS011;27842;52.272;8.052;2022-11-21T13:16:33;27.37;;;12.87;;
40959;SDS011;27842;52.272;8.052;2022-11-21T13:19:10;27.07;;;12.80;;
40959;SDS011;27842;52.272;8.052;2022-11-21T13:21:44;27.30;;;12.33;;
40959;SDS011;27842;52.272;8.052;2022-11-21T13:32:50;31.77;;;13.90;;
40959;SDS011;27842;52.272;8.052;2022-11-21T13:43:27;28.47;;;13.67;;
40959;SDS011;27842;52.272;8.052;2022-11-21T13:45:49;25.60;;;12.13;;
40959;SDS011;27842;52.272;8.052;2022-11-21T13:51:00;26.67;;;12.60;;
40959;SDS011;27842;52.272;8.052;2022-11-21T14:07:15;27.03;;;12.37;;
40959;SDS011;27842;52.272;8.052;2022-11-21T14:09:48;30.07;;;14.70;;
40959;SDS011;27842;52.272;8.052;2022-11-21T14:12:20;30.35;;;14.60;;
40959;SDS011;27842;52.272;8.052;2022-11-21T14:17:46;28.30;;;14.00;;
40959;SDS011;27842;52.272;8.052;2022-11-21T14:35:36;30.83;;;13.93;;
40959;SDS011;27842;52.272;8.052;2022-11-21T14:38:04;29.50;;;13.73;;
40959;SDS011;27842;52.272;8.052;2022-11-21T14:40:30;31.37;;;14.63;;
40959;SDS011;27842;52.272;8.052;2022-11-21T14:42:56;30.37;;;14.90;;
40959;SDS011;27842;52.272;8.052;2022-11-21T14:45:22;28.10;;;13.50;;
40959;SDS011;27842;52.272;8.052;2022-11-21T14:47:49;28.73;;;13.67;;
40959;SDS011;27842;52.272;8.052;2022-11-21T14:50:23;27.80;;;13.83;;
40959;SDS011;27842;52.272;8.052;2022-11-21T14:52:53;28.70;;;14.47;;
40959;SDS011;27842;52.272;8.052;2022-11-21T14:55:29;28.30;;;13.90;;
40959;SDS011;27842;52.272;8.052;2022-11-21T14:57:56;30.40;;;15.13;;
40959;SDS011;27842;52.272;8.052;2022-11-21T15:00:26;30.90;;;15.57;;
40959;SDS011;27842;52.272;8.052;2022-11-21T15:02:53;30.13;;;14.83;;
40959;SDS011;27842;52.272;8.052;2022-11-21T15:05:25;31.65;;;15.18;;
40959;SDS011;27842;52.272;8.052;2022-11-21T15:07:54;32.43;;;16.33;;
40959;SDS011;27842;52.272;8.052;2022-11-21T15:10:20;30.27;;;14.70;;
40959;SDS011;27842;52.272;8.052;2022-11-21T15:13:00;31.10;;;15.23;;
40959;SDS011;27842;52.272;8.052;2022-11-21T15:15:30;31.47;;;16.00;;
40959;SDS011;27842;52.272;8.052;2022-11-21T15:18:00;30.97;;;15.73;;
40959;SDS011;27842;52.272;8.052;2022-11-21T15:20:28;31.63;;;15.53;;
40959;SDS011;27842;52.272;8.052;2022-11-21T15:22:55;29.67;;;15.50;;
40959;SDS011;27842;52.272;8.052;2022-11-21T15:25:23;32.50;;;15.80;;
40959;SDS011;27842;52.272;8.052;2022-11-21T15:28:05;30.38;;;15.02;;
40959;SDS011;27842;52.272;8.052;2022-11-21T15:30:33;32.03;;;15.77;;
40959;SDS011;27842;52.272;8.052;2022-11-21T15:33:05;28.55;;;14.05;;
40959;SDS011;27842;52.272;8.052;2022-11-21T15:35:57;28.73;;;13.67;;
40959;SDS011;27842;52.272;8.052;2022-11-21T15:48:40;28.73;;;13.00;;
40959;SDS011;27842;52.272;8.052;2022-11-21T15:51:08;28.40;;;13.53;;
40959;SDS011;27842;52.272;8.052;2022-11-21T15:53:35;29.57;;;14.37;;
40959;SDS011;27842;52.272;8.052;2022-11-21T15:56:01;30.00;;;13.47;;
40959;SDS011;27842;52.272;8.052;2022-11-21T15:58:27;29.50;;;14.60;;
40959;SDS011;27842;52.272;8.052;2022-11-21T16:00:53;27.40;;;13.30;;
40959;SDS011;27842;52.272;8.052;2022-11-21T16:03:18;26.77;;;13.57;;
40959;SDS011;27842;52.272;8.052;2022-11-21T16:05:44;29.67;;;15.67;;
40959;SDS011;27842;52.272;8.052;2022-11-21T16:08:10;29.60;;;14.73;;
40959;SDS011;27842;52.272;8.052;2022-11-21T16:10:35;27.43;;;13.57;;
40959;SDS011;27842;52.272;8.052;2022-11-21T16:13:01;27.33;;;13.63;;
40959;SDS011;27842;52.272;8.052;2022-11-21T16:15:27;29.80;;;13.73;;
40959;SDS011;27842;52.272;8.052;2022-11-21T16:17:53;29.60;;;12.93;;
40959;SDS011;27842;52.272;8.052;2022-11-21T16:20:18;28.90;;;13.97;;
40959;SDS011;27842;52.272;8.052;2022-11-21T16:22:44;28.00;;;13.53;;
40959;SDS011;27842;52.272;8.052;2022-11-21T16:25:10;28.33;;;14.53;;
40959;SDS011;27842;52.272;8.052;2022-11-21T16:27:35;27.77;;;12.73;;
40959;SDS011;27842;52.272;8.052;2022-11-21T16:30:01;29.83;;;13.70;;
40959;SDS011;27842;52.272;8.052;2022-11-21T16:32:27;30.23;;;14.30;;
40959;SDS011;27842;52.272;8.052;2022-11-21T16:34:52;29.30;;;14.03;;
40959;SDS011;27842;52.272;8.052;2022-11-21T16:37:22;31.77;;;15.57;;
40959;SDS011;27842;52.272;8.052;2022-11-21T16:39:48;27.77;;;13.87;;
40959;SDS011;27842;52.272;8.052;2022-11-21T16:42:16;30.20;;;14.63;;
